createdAt,value
2019-01-29T00:00:24.009Z,6.29
2019-01-29T00:05:21.132Z,6.26
2019-01-29T00:10:18.094Z,6.14
2019-01-29T00:15:14.988Z,6.22
2019-01-29T00:20:12.125Z,6.20
2019-01-29T00:25:10.012Z,6.26
2019-01-29T00:30:10.966Z,6.16
2019-01-29T00:35:07.960Z,6.24
2019-01-29T00:40:11.478Z,6.21
2019-01-29T00:45:12.383Z,6.06
2019-01-29T00:50:12.979Z,6.06
2019-01-29T00:55:16.036Z,6.10
2019-01-29T01:00:17.546Z,5.97
2019-01-29T01:05:15.204Z,6.04
2019-01-29T01:10:18.701Z,5.98
2019-01-29T01:15:16.111Z,5.92
2019-01-29T01:20:16.061Z,5.88
2019-01-29T01:25:14.072Z,5.84
2019-01-29T01:30:17.097Z,5.92
2019-01-29T01:35:14.104Z,5.88
2019-01-29T01:40:18.145Z,5.98
2019-01-29T01:45:15.047Z,5.85
2019-01-29T01:50:13.549Z,5.94
2019-01-29T01:55:13.909Z,5.82
2019-01-29T02:00:20.417Z,5.78
2019-01-29T02:05:17.424Z,5.73
2019-01-29T02:10:21.652Z,5.74
2019-01-29T02:15:18.865Z,5.85
2019-01-29T02:20:16.506Z,5.78
2019-01-29T02:25:13.729Z,5.72
2019-01-29T02:30:19.947Z,5.65
2019-01-29T02:35:16.967Z,5.66
2019-01-29T02:40:21.552Z,5.45
2019-01-29T02:45:18.850Z,5.27
2019-01-29T02:50:17.511Z,5.12
2019-01-29T02:55:14.820Z,5.18
2019-01-29T03:00:21.941Z,5.16
2019-01-29T03:05:18.940Z,5.28
2019-01-29T03:10:19.010Z,5.38
2019-01-29T03:15:20.950Z,5.28
2019-01-29T03:20:17.975Z,5.21
2019-01-29T03:25:15.015Z,5.20
2019-01-29T03:30:20.307Z,5.32
2019-01-29T03:35:17.432Z,5.26
2019-01-29T03:40:19.386Z,5.23
2019-01-29T03:45:16.585Z,5.28
2019-01-29T03:50:19.365Z,5.34
2019-01-29T03:55:16.266Z,5.23
2019-01-29T04:00:17.429Z,5.34
2019-01-29T04:05:14.352Z,5.30
2019-01-29T04:10:16.243Z,5.15
2019-01-29T04:15:17.839Z,5.37
2019-01-29T04:20:20.165Z,5.27
2019-01-29T04:25:17.468Z,5.31
2019-01-29T04:30:17.213Z,5.38
2019-01-29T04:35:14.435Z,5.37
2019-01-29T04:40:17.088Z,5.27
2019-01-29T04:45:16.200Z,5.31
2019-01-29T04:50:16.833Z,5.30
2019-01-29T04:55:16.298Z,5.18
2019-01-29T05:00:20.278Z,5.23
2019-01-29T05:05:18.173Z,5.30
2019-01-29T05:10:18.321Z,5.28
2019-01-29T05:15:17.723Z,5.37
2019-01-29T05:20:20.050Z,5.34
2019-01-29T05:25:17.199Z,5.37
2019-01-29T05:30:21.012Z,5.42
2019-01-29T05:35:18.163Z,5.37
2019-01-29T05:40:18.212Z,5.33
2019-01-29T05:45:17.809Z,5.37
2019-01-29T05:50:15.199Z,5.40
2019-01-29T05:55:14.196Z,5.46
2019-01-29T06:00:21.045Z,5.44
2019-01-29T06:05:18.349Z,5.40
2019-01-29T06:10:16.582Z,5.31
2019-01-29T06:15:23.165Z,5.42
2019-01-29T06:20:27.042Z,5.40
2019-01-29T06:25:23.943Z,5.34
2019-01-29T06:30:24.597Z,5.25
2019-01-29T06:35:22.196Z,5.15
2019-01-29T06:40:27.356Z,5.33
2019-01-29T06:45:25.133Z,5.43
2019-01-29T06:50:25.478Z,5.42
2019-01-29T06:55:24.895Z,5.22
2019-01-29T07:00:30.704Z,5.15
2019-01-29T07:05:27.602Z,5.20
2019-01-29T07:10:25.764Z,5.41
2019-01-29T07:15:46.515Z,5.47
2019-01-29T07:20:43.466Z,5.62
2019-01-29T07:25:40.644Z,5.59
2019-01-29T07:30:37.610Z,5.58
2019-01-29T07:35:34.559Z,5.54
2019-01-29T07:40:31.456Z,5.55
2019-01-29T07:45:28.438Z,5.53
2019-01-29T07:50:25.423Z,5.50
2019-01-29T07:55:22.387Z,5.49
2019-01-29T08:00:19.419Z,5.56
2019-01-29T08:05:16.386Z,5.53
2019-01-29T08:10:16.832Z,5.64
2019-01-29T08:15:21.463Z,5.77
2019-01-29T08:20:18.679Z,5.82
2019-01-29T08:25:15.742Z,5.92
2019-01-29T08:30:14.961Z,5.81
2019-01-29T08:35:14.571Z,5.77
2019-01-29T08:40:14.129Z,5.87
2019-01-29T08:45:16.836Z,6.00
2019-01-29T08:50:22.595Z,5.96
2019-01-29T08:55:19.738Z,6.09
2019-01-29T09:00:21.389Z,6.13
2019-01-29T09:05:18.401Z,6.24
2019-01-29T09:10:19.149Z,6.32
2019-01-29T09:15:17.957Z,6.31
2019-01-29T09:20:21.158Z,6.39
2019-01-29T09:25:21.117Z,6.46
2019-01-29T09:30:18.748Z,6.59
2019-01-29T09:35:15.655Z,6.68
2019-01-29T09:40:16.912Z,6.73
2019-01-29T09:45:16.324Z,6.61
2019-01-29T09:50:21.530Z,6.71
2019-01-29T09:55:29.125Z,6.73
2019-01-29T10:00:32.867Z,6.67
2019-01-29T10:05:30.018Z,6.54
2019-01-29T10:10:26.975Z,6.83
2019-01-29T10:15:33.326Z,6.83
2019-01-29T10:20:30.224Z,7.21
2019-01-29T10:25:27.577Z,7.33
2019-01-29T10:30:25.771Z,7.52
2019-01-29T10:35:27.262Z,7.58
2019-01-29T10:40:26.384Z,7.56
2019-01-29T10:45:26.520Z,7.74
2019-01-29T10:50:26.639Z,7.88
2019-01-29T10:55:23.731Z,7.97
2019-01-29T11:00:25.470Z,7.99
2019-01-29T11:05:22.486Z,8.23
2019-01-29T11:10:20.832Z,8.57
2019-01-29T11:15:36.557Z,8.89
2019-01-29T11:20:33.478Z,9.21
2019-01-29T11:25:30.555Z,9.24
2019-01-29T11:30:31.417Z,9.46
2019-01-29T11:35:28.366Z,9.44
2019-01-29T11:40:30.476Z,9.01
2019-01-29T11:45:37.335Z,9.42
2019-01-29T11:50:34.240Z,9.34
2019-01-29T11:55:31.265Z,9.90
2019-01-29T12:00:35.598Z,9.86
2019-01-29T12:05:32.490Z,9.57
2019-01-29T12:10:29.453Z,9.70
2019-01-29T12:15:26.365Z,9.95
2019-01-29T12:20:23.333Z,10.59
2019-01-29T12:25:20.331Z,11.42
2019-01-29T12:30:24.114Z,11.62
2019-01-29T12:35:21.031Z,11.62
2019-01-29T12:40:17.977Z,11.08
2019-01-29T12:45:17.141Z,11.91
2019-01-29T12:50:22.281Z,11.79
2019-01-29T12:55:19.276Z,10.87
2019-01-29T13:00:18.629Z,10.18
2019-01-29T13:05:15.521Z,9.65
2019-01-29T13:10:24.582Z,9.22
2019-01-29T13:15:26.253Z,8.62
2019-01-29T13:20:23.677Z,8.61
2019-01-29T13:25:20.895Z,8.30
2019-01-29T13:30:28.935Z,8.42
2019-01-29T13:35:32.090Z,8.36
2019-01-29T13:40:29.411Z,7.87
2019-01-29T13:45:26.382Z,7.89
2019-01-29T13:50:39.783Z,7.76
2019-01-29T13:55:36.705Z,7.65
2019-01-29T14:00:37.261Z,7.75
2019-01-29T14:05:34.178Z,7.68
2019-01-29T14:10:31.340Z,7.52
2019-01-29T14:15:31.182Z,7.48
2019-01-29T14:20:28.116Z,7.46
2019-01-29T14:25:25.030Z,7.41
2019-01-29T14:30:26.302Z,7.17
2019-01-29T14:35:23.449Z,7.24
2019-01-29T14:40:21.064Z,7.03
2019-01-29T14:45:19.343Z,7.01
2019-01-29T14:50:16.902Z,6.89
2019-01-29T14:55:14.308Z,6.76
2019-01-29T15:00:22.698Z,6.78
2019-01-29T15:05:20.601Z,6.64
2019-01-29T15:10:24.316Z,6.50
2019-01-29T15:15:28.262Z,6.37
2019-01-29T15:20:25.183Z,6.23
2019-01-29T15:25:22.118Z,6.26
2019-01-29T15:30:28.789Z,6.22
2019-01-29T15:35:25.903Z,6.28
2019-01-29T15:40:22.951Z,6.27
2019-01-29T15:45:24.727Z,6.22
2019-01-29T15:50:24.957Z,6.15
2019-01-29T15:55:22.464Z,6.12
2019-01-29T16:00:31.170Z,6.06
2019-01-29T16:05:39.092Z,6.02
2019-01-29T16:10:40.018Z,6.10
2019-01-29T16:15:37.266Z,6.11
2019-01-29T16:20:34.226Z,6.06
2019-01-29T16:25:33.284Z,6.07
2019-01-29T16:30:36.397Z,5.98
2019-01-29T16:35:39.513Z,5.88
2019-01-29T16:40:41.019Z,5.66
2019-01-29T16:45:37.980Z,5.75
2019-01-29T16:50:35.053Z,5.64
2019-01-29T16:55:31.949Z,5.62
2019-01-29T17:00:34.574Z,5.50
2019-01-29T17:05:32.721Z,5.40
2019-01-29T17:10:31.958Z,5.45
2019-01-29T17:15:34.328Z,5.20
2019-01-29T17:20:36.723Z,5.13
2019-01-29T17:25:33.692Z,5.08
2019-01-29T17:30:35.273Z,4.98
2019-01-29T17:35:32.568Z,4.87
2019-01-29T17:40:29.536Z,4.89
2019-01-29T17:45:43.009Z,4.82
2019-01-29T17:50:42.646Z,4.79
2019-01-29T17:55:41.361Z,4.29
2019-01-29T18:00:40.227Z,4.46
2019-01-29T18:05:37.981Z,4.45
2019-01-29T18:10:34.906Z,4.54
2019-01-29T18:15:31.965Z,4.57
2019-01-29T18:20:28.930Z,4.57
2019-01-29T18:25:25.877Z,4.42
2019-01-29T18:30:30.773Z,4.34
2019-01-29T18:35:27.688Z,4.26
2019-01-29T18:40:40.820Z,4.29
2019-01-29T18:45:37.724Z,4.14
2019-01-29T18:50:34.672Z,4.13
2019-01-29T18:55:31.736Z,4.18
2019-01-29T19:00:28.696Z,4.07
2019-01-29T19:05:25.928Z,4.01
2019-01-29T19:10:24.057Z,3.80
2019-01-29T19:15:25.736Z,3.73
2019-01-29T19:20:25.830Z,3.71
2019-01-29T19:25:22.740Z,3.86
2019-01-29T19:30:31.444Z,3.80
2019-01-29T19:35:28.486Z,3.78
2019-01-29T19:40:25.538Z,3.78
2019-01-29T19:45:29.762Z,3.70
2019-01-29T19:50:31.525Z,3.69
2019-01-29T19:55:28.656Z,3.76
2019-01-29T20:00:38.539Z,3.71
2019-01-29T20:05:35.450Z,3.79
2019-01-29T20:10:32.866Z,3.94
2019-01-29T20:15:29.769Z,3.86
2019-01-29T20:20:31.133Z,3.97
2019-01-29T20:25:28.066Z,3.99
2019-01-29T20:30:29.220Z,4.08
2019-01-29T20:35:26.169Z,4.14
2019-01-29T20:40:23.445Z,4.13
2019-01-29T20:45:20.355Z,4.08
2019-01-29T20:50:27.591Z,3.91
2019-01-29T20:55:24.516Z,3.84
2019-01-29T21:00:27.742Z,3.94
2019-01-29T21:05:24.657Z,3.94
2019-01-29T21:10:23.106Z,3.76
2019-01-29T21:15:26.630Z,3.85
2019-01-29T21:20:29.486Z,3.90
2019-01-29T21:25:26.522Z,3.92
2019-01-29T21:30:38.525Z,3.92
2019-01-29T21:35:35.432Z,3.95
2019-01-29T21:40:32.401Z,3.86
2019-01-29T21:45:29.502Z,3.90
2019-01-29T21:50:31.251Z,3.88
2019-01-29T21:55:28.267Z,3.95
2019-01-29T22:00:33.413Z,4.04
2019-01-29T22:05:30.525Z,4.04
2019-01-29T22:10:27.661Z,3.90
2019-01-29T22:20:42.149Z,3.98
2019-01-29T22:25:39.059Z,3.93
2019-01-29T22:30:39.188Z,3.69
2019-01-29T22:35:36.116Z,3.71
2019-01-29T22:40:33.885Z,3.75
2019-01-29T22:45:30.781Z,3.83
2019-01-29T22:50:39.813Z,3.75
2019-01-29T22:55:37.011Z,3.81
2019-01-29T23:00:49.344Z,3.74
2019-01-29T23:06:03.772Z,3.79
2019-01-29T23:11:00.683Z,3.62
2019-01-29T23:15:58.081Z,3.68
2019-01-29T23:20:54.968Z,3.81
2019-01-29T23:25:51.920Z,3.80
2019-01-29T23:30:48.836Z,3.45
2019-01-29T23:35:45.772Z,3.25
2019-01-29T23:40:42.684Z,3.45
2019-01-29T23:45:39.624Z,3.63
2019-01-29T23:50:36.540Z,3.67
2019-01-29T23:55:33.483Z,3.68
